Terminal Aerodrome Forecast
Issued by NWS

Home | Current Version | Previous Version | Text Only | Print | Product List | Glossary On
Versions: 1 2 3 4 5 6 7 8 9 10 11 12 13 14
060
FTUS46 KHNX 052320
TAFMCE
TAF
KMCE 052320Z 0600/0624 00000KT P6SM SKC
     FM060400 VRB03KT 4SM BR SCT200
     FM061000 00000KT 2SM BR BKN200
      TEMPO 0612/0616 1/2SM FG
     FM061800 33005KT 5SM BR SCT200=

USA.gov is the U.S. government's official web portal to all federal, state and local government web resources and services.